Terminal Aerodrome Forecast
Issued by NWS

Home | Current Version | Previous Version | Text Only | Print | Product List | Glossary On
Versions: 1 2 3 4 5 6 7 8 9 10 11 12 13 14 15
000
FTUS42 KMLB 271720
TAFISM
TAF
KISM 271720Z 2718/2818 20008KT P6SM VCTS SCT035CB BKN080
      TEMPO 2718/2719 3SM TSRA BKN025CB BKN035 BKN080
     FM272000 16008KT P6SM VCSH SCT035 BKN080
     FM280200 15003KT P6SM SCT100 BKN250
     FM281400 11006KT P6SM SCT025 SCT080 BKN250=

USA.gov is the U.S. government's official web portal to all federal, state and local government web resources and services.